createdAt,value
2019-06-19T00:00:33.744Z,1.00
2019-06-19T00:01:38.740Z,1.00
2019-06-19T00:02:44.170Z,1.00
2019-06-19T00:03:48.838Z,1.00
2019-06-19T00:04:54.055Z,1.00
2019-06-19T00:05:58.685Z,1.00
2019-06-19T00:07:03.980Z,1.00
2019-06-19T00:08:09.302Z,1.00
2019-06-19T00:09:14.538Z,1.00
2019-06-19T00:10:19.235Z,99.90
2019-06-19T00:11:24.523Z,1.00
2019-06-19T00:12:29.202Z,1.00
2019-06-19T00:13:34.443Z,1.00
2019-06-19T00:14:42.563Z,1.00
2019-06-19T00:15:47.214Z,1.00
2019-06-19T00:16:53.637Z,1.00
2019-06-19T00:17:59.063Z,1.00
2019-06-19T00:19:03.695Z,1.00
2019-06-19T00:20:09.090Z,1.00
2019-06-19T00:21:13.822Z,1.00
2019-06-19T00:22:19.167Z,1.00
2019-06-19T00:23:23.806Z,1.00
2019-06-19T00:24:29.072Z,1.00
2019-06-19T00:25:33.816Z,1.00
2019-06-19T00:26:40.294Z,1.00
2019-06-19T00:27:44.939Z,1.00
2019-06-19T00:28:50.974Z,1.00
2019-06-19T00:29:55.906Z,1.00
2019-06-19T00:31:01.167Z,1.00
2019-06-19T00:32:06.054Z,1.00
2019-06-19T00:33:11.735Z,1.00
2019-06-19T00:34:16.515Z,1.00
2019-06-19T00:35:22.167Z,1.00
2019-06-19T00:36:26.807Z,1.00
2019-06-19T00:37:32.229Z,1.00
2019-06-19T00:38:36.862Z,1.00
2019-06-19T00:39:42.078Z,1.00
2019-06-19T00:40:46.697Z,1.00
2019-06-19T00:41:51.922Z,1.00
2019-06-19T00:42:56.570Z,1.00
2019-06-19T00:44:01.813Z,1.00
2019-06-19T00:45:06.618Z,1.00
2019-06-19T00:46:11.819Z,1.00
2019-06-19T00:47:16.566Z,1.00
2019-06-19T00:48:22.159Z,1.00
2019-06-19T00:49:26.761Z,1.00
2019-06-19T00:50:31.995Z,1.00
2019-06-19T00:51:36.602Z,1.00
2019-06-19T00:52:42.168Z,1.00
2019-06-19T00:53:46.774Z,1.00
2019-06-19T00:55:06.428Z,1.00
2019-06-19T00:56:15.740Z,1.00
2019-06-19T00:57:21.029Z,1.00
2019-06-19T00:58:26.978Z,1.00
2019-06-19T00:59:32.322Z,1.00
2019-06-19T01:00:37.554Z,1.00
2019-06-19T01:01:42.802Z,1.00
2019-06-19T01:02:47.518Z,1.00
2019-06-19T01:03:52.690Z,1.00
2019-06-19T01:04:57.307Z,1.00
2019-06-19T01:06:02.604Z,1.00
2019-06-19T01:07:07.325Z,1.00
2019-06-19T01:08:12.610Z,1.00
2019-06-19T01:09:17.300Z,1.00
2019-06-19T01:10:22.683Z,1.00
2019-06-19T01:11:27.343Z,1.00
2019-06-19T01:12:32.543Z,1.00
2019-06-19T01:13:37.166Z,1.00
2019-06-19T01:14:42.359Z,1.00
2019-06-19T01:15:47.079Z,1.00
2019-06-19T01:16:52.417Z,1.00
2019-06-19T01:17:56.995Z,1.00
2019-06-19T01:19:02.187Z,1.00
2019-06-19T01:20:07.175Z,1.00
2019-06-19T01:21:12.430Z,1.00
2019-06-19T01:22:17.103Z,1.00
2019-06-19T01:23:22.283Z,1.00
2019-06-19T01:24:26.894Z,1.00
2019-06-19T01:25:32.145Z,1.00
2019-06-19T01:26:36.751Z,1.00
2019-06-19T01:27:42.097Z,1.00
2019-06-19T01:28:46.721Z,1.00
2019-06-19T01:30:05.213Z,1.00
2019-06-19T01:30:58.271Z,1.00
2019-06-19T01:32:03.487Z,1.00
2019-06-19T01:33:08.112Z,1.00
2019-06-19T01:34:13.392Z,1.00
2019-06-19T01:35:20.557Z,1.00
2019-06-19T01:36:24.938Z,1.00
2019-06-19T01:37:31.468Z,1.00
2019-06-19T01:38:36.571Z,1.00
2019-06-19T01:39:41.371Z,1.00
2019-06-19T01:40:46.569Z,1.00
2019-06-19T01:41:51.489Z,1.00
2019-06-19T01:42:56.829Z,1.00
2019-06-19T01:44:01.529Z,1.00
2019-06-19T01:45:11.126Z,1.00
2019-06-19T01:46:15.009Z,1.00
2019-06-19T01:47:21.558Z,1.00
2019-06-19T01:48:26.318Z,1.00
2019-06-19T01:49:31.521Z,1.00
2019-06-19T01:50:36.129Z,1.00
2019-06-19T01:51:41.859Z,1.00
2019-06-19T01:52:50.879Z,1.00
2019-06-19T01:54:23.709Z,1.00
2019-06-19T01:55:30.776Z,1.00
2019-06-19T01:56:35.324Z,1.00
2019-06-19T01:57:40.919Z,1.00
2019-06-19T01:58:46.324Z,1.00
2019-06-19T01:59:51.065Z,1.00
2019-06-19T02:00:56.408Z,1.00
2019-06-19T02:02:01.255Z,1.00
2019-06-19T02:03:06.611Z,1.00
2019-06-19T02:04:11.862Z,1.00
2019-06-19T02:05:17.184Z,1.00
2019-06-19T02:06:21.815Z,1.00
2019-06-19T02:07:26.990Z,1.00
2019-06-19T02:08:31.833Z,1.00
2019-06-19T02:09:40.841Z,1.00
2019-06-19T02:10:44.447Z,1.00
2019-06-19T02:11:51.048Z,1.00
2019-06-19T02:12:55.903Z,1.00
2019-06-19T02:14:01.130Z,1.00
2019-06-19T02:15:06.259Z,1.00
2019-06-19T02:16:11.827Z,1.00
2019-06-19T02:17:17.585Z,1.00
2019-06-19T02:18:22.789Z,1.00
2019-06-19T02:19:33.980Z,1.00
2019-06-19T02:20:35.006Z,1.00
2019-06-19T02:21:41.201Z,1.00
2019-06-19T02:22:46.605Z,1.00
2019-06-19T02:23:51.209Z,1.00
2019-06-19T02:24:56.441Z,1.00
2019-06-19T02:26:01.278Z,1.00
2019-06-19T02:27:06.683Z,1.00
2019-06-19T02:28:11.361Z,1.00
2019-06-19T02:29:16.574Z,1.00
2019-06-19T02:30:21.916Z,1.00
2019-06-19T02:31:27.242Z,1.00
2019-06-19T02:32:35.857Z,1.00
2019-06-19T02:33:41.821Z,1.00
2019-06-19T02:34:45.166Z,1.00
2019-06-19T02:35:51.818Z,1.00
2019-06-19T02:36:56.663Z,1.00
2019-06-19T02:38:02.589Z,2.70
2019-06-19T02:39:07.956Z,1.00
2019-06-19T02:40:13.697Z,1.00
2019-06-19T02:41:21.067Z,1.00
2019-06-19T02:42:25.258Z,1.00
2019-06-19T02:43:29.960Z,1.00
2019-06-19T02:44:35.198Z,1.00
2019-06-19T02:45:39.814Z,1.00
2019-06-19T02:46:45.690Z,1.00
2019-06-19T02:47:50.503Z,3.60
2019-06-19T02:48:55.690Z,5.50
2019-06-19T02:50:00.374Z,1.00
2019-06-19T02:51:07.302Z,1.60
2019-06-19T02:52:12.141Z,5.60
2019-06-19T02:53:17.481Z,14.50
2019-06-19T02:54:22.266Z,6.80
2019-06-19T02:55:27.639Z,7.00
2019-06-19T02:56:32.455Z,15.80
2019-06-19T02:57:37.871Z,9.30
2019-06-19T02:58:42.648Z,18.70
2019-06-19T02:59:47.875Z,24.90
2019-06-19T03:00:52.538Z,29.20
2019-06-19T03:01:57.803Z,20.20
2019-06-19T03:03:02.513Z,10.60
2019-06-19T03:04:07.688Z,7.20
2019-06-19T03:05:12.479Z,1.00
2019-06-19T03:06:17.718Z,1.00
2019-06-19T03:07:22.374Z,1.00
2019-06-19T03:08:27.617Z,1.00
2019-06-19T03:09:32.242Z,1.00
2019-06-19T03:10:37.468Z,1.00
2019-06-19T03:11:42.311Z,1.00
2019-06-19T03:12:47.605Z,1.10
2019-06-19T03:13:52.271Z,1.00
2019-06-19T03:14:57.482Z,1.00
2019-06-19T03:16:02.171Z,1.00
2019-06-19T03:17:07.382Z,2.40
2019-06-19T03:18:12.096Z,1.00
2019-06-19T03:19:17.431Z,8.10
2019-06-19T03:20:22.154Z,8.30
2019-06-19T03:21:27.358Z,11.40
2019-06-19T03:22:32.055Z,16.50
2019-06-19T03:23:37.292Z,7.30
2019-06-19T03:24:41.988Z,6.10
2019-06-19T03:25:47.221Z,6.40
2019-06-19T03:26:53.287Z,16.20
2019-06-19T03:27:58.545Z,16.60
2019-06-19T03:29:03.186Z,40.20
2019-06-19T03:30:08.882Z,31.40
2019-06-19T03:31:32.954Z,26.90
2019-06-19T03:32:20.444Z,30.00
2019-06-19T03:33:25.084Z,19.40
2019-06-19T03:34:30.302Z,21.20
2019-06-19T03:35:35.015Z,37.40
2019-06-19T03:36:40.363Z,44.90
2019-06-19T03:37:44.988Z,47.60
2019-06-19T03:38:50.239Z,33.40
2019-06-19T03:39:54.945Z,21.10
2019-06-19T03:41:00.165Z,11.60
2019-06-19T03:42:04.857Z,1.00
2019-06-19T03:43:10.111Z,2.60
2019-06-19T03:44:14.883Z,9.80
2019-06-19T03:45:20.343Z,22.10
2019-06-19T03:46:25.015Z,16.20
2019-06-19T03:47:30.206Z,11.50
2019-06-19T03:48:34.840Z,1.00
2019-06-19T03:49:41.060Z,1.00
2019-06-19T03:50:45.719Z,1.00
2019-06-19T03:51:50.972Z,5.30
2019-06-19T03:52:55.597Z,16.20
2019-06-19T03:54:00.833Z,9.40
2019-06-19T03:55:06.742Z,1.00
2019-06-19T03:56:13.040Z,1.00
2019-06-19T03:57:17.706Z,1.00
2019-06-19T03:58:23.214Z,12.50
2019-06-19T03:59:27.821Z,5.00
2019-06-19T04:00:33.048Z,1.00
2019-06-19T04:01:48.979Z,1.00
2019-06-19T04:02:44.649Z,1.00
2019-06-19T04:03:49.285Z,1.00
2019-06-19T04:04:55.473Z,12.90
2019-06-19T04:06:00.248Z,1.00
2019-06-19T04:07:05.566Z,1.00
2019-06-19T04:08:10.192Z,1.00
2019-06-19T04:09:15.424Z,1.00
2019-06-19T04:10:20.077Z,1.00
2019-06-19T04:11:25.320Z,1.00
2019-06-19T04:12:29.931Z,1.00
2019-06-19T04:13:35.203Z,1.00
2019-06-19T04:14:39.925Z,1.00
2019-06-19T04:15:45.150Z,1.00
2019-06-19T04:16:49.796Z,1.00
2019-06-19T04:17:55.102Z,1.00
2019-06-19T04:18:59.810Z,1.00
2019-06-19T04:20:05.658Z,1.00
2019-06-19T04:21:10.327Z,1.00
2019-06-19T04:22:15.636Z,1.00
2019-06-19T04:23:20.546Z,1.00
2019-06-19T04:24:25.775Z,1.00
2019-06-19T04:25:30.406Z,1.00
2019-06-19T04:26:35.705Z,1.00
2019-06-19T04:27:40.578Z,1.00
2019-06-19T04:28:58.613Z,1.00
2019-06-19T04:30:06.257Z,1.00
2019-06-19T04:31:11.528Z,1.00
2019-06-19T04:32:16.149Z,1.00
2019-06-19T04:33:22.278Z,1.00
2019-06-19T04:34:27.182Z,1.00
2019-06-19T04:35:32.491Z,1.00
2019-06-19T04:36:37.123Z,1.00
2019-06-19T04:37:42.326Z,1.00
2019-06-19T04:38:47.110Z,1.00
2019-06-19T04:39:52.435Z,1.00
2019-06-19T04:40:57.277Z,1.00
2019-06-19T04:42:02.747Z,1.00
2019-06-19T04:43:07.532Z,1.00
2019-06-19T04:44:12.809Z,1.00
2019-06-19T04:45:17.432Z,1.00
2019-06-19T04:46:22.877Z,1.00
2019-06-19T04:47:27.569Z,1.00
2019-06-19T04:48:32.864Z,1.00
2019-06-19T04:49:37.958Z,1.00
2019-06-19T04:50:44.316Z,1.00
2019-06-19T04:51:49.048Z,1.00
2019-06-19T04:52:54.252Z,1.00
2019-06-19T04:53:58.867Z,1.00
2019-06-19T04:55:04.242Z,1.00
2019-06-19T04:56:08.855Z,1.00
2019-06-19T04:57:14.729Z,1.00
2019-06-19T04:58:19.711Z,1.00
2019-06-19T04:59:25.292Z,1.00
2019-06-19T05:00:29.918Z,1.00
2019-06-19T05:01:35.817Z,1.00
2019-06-19T05:02:40.687Z,1.00
2019-06-19T05:03:46.059Z,1.00
2019-06-19T05:04:50.850Z,1.00
2019-06-19T05:05:56.131Z,1.00
2019-06-19T05:07:00.818Z,1.00
2019-06-19T05:08:09.638Z,1.00
2019-06-19T05:09:14.297Z,1.00
2019-06-19T05:10:19.511Z,1.00
2019-06-19T05:11:24.260Z,1.00
2019-06-19T05:12:29.521Z,1.00
2019-06-19T05:13:35.232Z,1.00
2019-06-19T05:14:40.563Z,1.00
2019-06-19T05:15:45.281Z,1.00
2019-06-19T05:16:50.480Z,1.00
2019-06-19T05:17:55.195Z,1.00
2019-06-19T05:19:00.463Z,1.00
2019-06-19T05:20:05.417Z,1.00
2019-06-19T05:21:10.678Z,1.00
2019-06-19T05:22:15.306Z,1.00
2019-06-19T05:23:21.194Z,1.00
2019-06-19T05:24:25.996Z,1.00
2019-06-19T05:25:31.186Z,1.00
2019-06-19T05:26:35.893Z,1.00
2019-06-19T05:27:41.139Z,1.00
2019-06-19T05:28:45.757Z,1.00
2019-06-19T05:29:50.955Z,1.00
2019-06-19T05:30:55.597Z,1.00
2019-06-19T05:32:00.808Z,1.00
2019-06-19T05:33:05.694Z,1.00
2019-06-19T05:34:10.894Z,1.00
2019-06-19T05:35:15.526Z,1.00
2019-06-19T05:36:20.728Z,1.00
2019-06-19T05:37:25.351Z,1.00
2019-06-19T05:38:30.681Z,1.00
2019-06-19T05:39:35.424Z,1.00
2019-06-19T05:40:40.667Z,1.00
2019-06-19T05:41:45.318Z,1.00
2019-06-19T05:42:50.612Z,1.00
2019-06-19T05:43:55.335Z,1.00
2019-06-19T05:45:00.563Z,1.00
2019-06-19T05:46:05.387Z,1.00
2019-06-19T05:47:10.702Z,1.00
2019-06-19T05:48:15.350Z,1.00
2019-06-19T05:49:20.654Z,1.00
2019-06-19T05:50:25.359Z,1.00
2019-06-19T05:51:31.739Z,1.00
2019-06-19T05:52:36.501Z,1.00
2019-06-19T05:53:41.815Z,1.00
2019-06-19T05:54:46.706Z,1.00
2019-06-19T05:55:52.006Z,1.00
2019-06-19T05:56:57.345Z,1.00
2019-06-19T05:58:02.595Z,1.00
2019-06-19T05:59:07.342Z,1.00
2019-06-19T06:00:13.741Z,1.00
2019-06-19T06:01:18.517Z,1.00
2019-06-19T06:02:23.986Z,99.90
2019-06-19T06:03:28.764Z,1.00
2019-06-19T06:04:35.614Z,1.00
2019-06-19T06:05:40.271Z,99.90
2019-06-19T06:06:45.514Z,1.00
2019-06-19T06:07:50.176Z,1.00
2019-06-19T06:08:55.467Z,1.00
2019-06-19T06:10:00.289Z,1.00
2019-06-19T06:11:05.664Z,1.00
2019-06-19T06:12:10.315Z,99.90
2019-06-19T06:13:15.633Z,99.90
2019-06-19T06:14:20.337Z,99.90
2019-06-19T06:15:25.648Z,99.90
2019-06-19T06:16:30.349Z,1.00
2019-06-19T06:17:35.682Z,1.00
2019-06-19T06:18:40.338Z,1.00
2019-06-19T06:19:45.699Z,1.00
2019-06-19T06:21:04.640Z,1.00
2019-06-19T06:22:12.899Z,1.00
2019-06-19T06:23:17.514Z,99.90
2019-06-19T06:24:22.804Z,99.90
2019-06-19T06:25:27.567Z,99.90
2019-06-19T06:26:32.811Z,99.90
2019-06-19T06:27:37.493Z,99.90
2019-06-19T06:28:44.013Z,99.90
2019-06-19T06:29:49.637Z,99.90
2019-06-19T06:30:54.975Z,99.90
2019-06-19T06:31:59.685Z,99.90
2019-06-19T06:33:09.374Z,99.90
2019-06-19T06:34:11.474Z,99.90
2019-06-19T06:35:17.450Z,99.90
2019-06-19T06:36:22.111Z,99.90
2019-06-19T06:37:27.486Z,99.90
2019-06-19T06:38:32.951Z,99.90
2019-06-19T06:39:38.315Z,99.90
2019-06-19T06:40:47.905Z,99.90
2019-06-19T06:41:50.017Z,99.90
2019-06-19T06:42:54.743Z,99.90
2019-06-19T06:44:02.089Z,99.90
2019-06-19T06:45:08.392Z,99.90
2019-06-19T06:46:13.716Z,99.90
2019-06-19T06:47:18.505Z,99.90
2019-06-19T06:48:23.822Z,99.90
2019-06-19T06:49:28.581Z,99.90
2019-06-19T06:50:33.951Z,99.90
2019-06-19T06:51:38.716Z,99.90
2019-06-19T06:52:43.964Z,98.50
2019-06-19T06:53:48.682Z,99.90
2019-06-19T06:54:53.910Z,78.90
2019-06-19T06:55:59.239Z,36.80
2019-06-19T06:57:04.756Z,55.60
2019-06-19T06:58:09.405Z,48.10
2019-06-19T06:59:14.743Z,24.20
2019-06-19T07:00:29.191Z,1.00
2019-06-19T07:01:34.466Z,1.00
2019-06-19T07:02:39.196Z,1.00
2019-06-19T07:03:44.539Z,1.00
2019-06-19T07:04:49.159Z,1.00
2019-06-19T07:05:54.409Z,1.00
2019-06-19T07:06:59.089Z,1.00
2019-06-19T07:08:04.588Z,1.00
2019-06-19T07:09:09.383Z,1.00
2019-06-19T07:10:15.042Z,1.00
2019-06-19T07:11:19.766Z,1.00
2019-06-19T07:12:25.153Z,1.00
2019-06-19T07:13:29.810Z,1.00
2019-06-19T07:14:35.148Z,1.00
2019-06-19T07:15:42.472Z,1.00
2019-06-19T07:16:48.219Z,1.00
2019-06-19T07:17:53.014Z,1.00
2019-06-19T07:18:58.251Z,1.00
2019-06-19T07:20:02.899Z,1.00
2019-06-19T07:22:12.197Z,1.00
2019-06-19T07:23:17.528Z,1.00
2019-06-19T07:24:22.910Z,1.00
2019-06-19T07:25:28.326Z,1.00
2019-06-19T07:26:32.987Z,1.00
2019-06-19T07:27:38.203Z,1.00
2019-06-19T07:28:42.891Z,1.00
2019-06-19T07:29:48.162Z,1.00
2019-06-19T07:30:52.913Z,1.00
2019-06-19T07:31:58.094Z,1.00
2019-06-19T07:33:02.810Z,1.00
2019-06-19T07:34:08.253Z,1.00
2019-06-19T07:35:13.339Z,1.00
2019-06-19T07:36:24.361Z,1.00
2019-06-19T07:37:29.066Z,1.00
2019-06-19T07:38:34.772Z,1.00
2019-06-19T07:39:39.806Z,1.00
2019-06-19T07:40:45.431Z,1.00
2019-06-19T07:41:50.331Z,1.00
2019-06-19T07:42:55.989Z,1.00
2019-06-19T07:44:02.182Z,1.00
2019-06-19T07:45:09.647Z,1.00
2019-06-19T07:46:14.353Z,1.00
2019-06-19T07:47:20.584Z,1.00
2019-06-19T07:48:26.241Z,1.00
2019-06-19T07:49:32.020Z,1.00
2019-06-19T07:50:37.292Z,1.00
2019-06-19T07:51:42.836Z,1.00
2019-06-19T07:52:48.794Z,1.00
2019-06-19T07:53:54.273Z,1.00
2019-06-19T07:54:58.965Z,1.00
2019-06-19T07:56:04.341Z,1.00
2019-06-19T07:57:10.139Z,1.00
2019-06-19T07:58:15.626Z,1.00
2019-06-19T07:59:20.317Z,1.00
2019-06-19T08:00:25.988Z,1.00
2019-06-19T08:01:30.969Z,1.00
2019-06-19T08:02:36.270Z,1.00
2019-06-19T08:03:56.764Z,1.00
2019-06-19T08:04:48.151Z,1.00
2019-06-19T08:05:52.927Z,1.00
2019-06-19T08:06:58.238Z,1.00
2019-06-19T08:08:02.986Z,1.00
2019-06-19T08:09:08.376Z,1.00
2019-06-19T08:10:13.995Z,1.00
2019-06-19T08:11:19.708Z,1.00
2019-06-19T08:12:25.463Z,1.00
2019-06-19T08:13:30.787Z,1.00
2019-06-19T08:14:35.671Z,1.00
2019-06-19T08:15:41.082Z,1.00
2019-06-19T08:16:45.831Z,1.00
2019-06-19T08:17:52.105Z,1.00
2019-06-19T08:18:56.818Z,1.00
2019-06-19T08:20:02.061Z,1.00
2019-06-19T08:21:06.795Z,1.00
2019-06-19T08:22:12.122Z,1.00
2019-06-19T08:23:16.776Z,1.00
2019-06-19T08:24:22.593Z,1.00
2019-06-19T08:25:29.100Z,1.00
2019-06-19T08:26:35.752Z,1.00
2019-06-19T08:27:40.522Z,1.00
2019-06-19T08:28:46.728Z,1.00
2019-06-19T08:29:51.576Z,1.00
2019-06-19T08:30:57.088Z,1.00
2019-06-19T08:32:02.047Z,1.00
2019-06-19T08:33:07.381Z,1.00
2019-06-19T08:34:14.729Z,1.00
2019-06-19T08:35:19.365Z,1.00
2019-06-19T08:36:24.191Z,1.00
2019-06-19T08:37:29.413Z,1.00
2019-06-19T08:38:34.044Z,1.00
2019-06-19T08:39:39.363Z,1.00
2019-06-19T08:40:56.292Z,1.00
2019-06-19T08:41:51.025Z,1.00
2019-06-19T08:42:56.686Z,1.00
2019-06-19T08:44:01.906Z,1.00
2019-06-19T08:45:07.251Z,1.00
2019-06-19T08:46:12.491Z,1.00
2019-06-19T08:47:17.174Z,1.00
2019-06-19T08:48:22.531Z,1.00
2019-06-19T08:49:27.348Z,1.00
2019-06-19T08:50:32.740Z,1.00
2019-06-19T08:51:37.389Z,1.00
2019-06-19T08:52:42.681Z,1.00
2019-06-19T08:53:47.338Z,1.00
2019-06-19T08:54:52.540Z,1.00
2019-06-19T08:55:57.315Z,1.00
2019-06-19T08:57:02.679Z,1.00
2019-06-19T08:58:07.454Z,1.00
2019-06-19T08:59:12.782Z,1.00
2019-06-19T09:00:21.163Z,1.00
2019-06-19T09:01:26.465Z,1.00
2019-06-19T09:02:32.206Z,1.00
2019-06-19T09:03:37.507Z,1.00
2019-06-19T09:04:42.402Z,1.00
2019-06-19T09:05:47.578Z,1.00
2019-06-19T09:06:52.230Z,1.00
2019-06-19T09:07:57.578Z,1.00
2019-06-19T09:09:02.359Z,1.00
2019-06-19T09:10:16.094Z,1.00
2019-06-19T09:11:21.683Z,1.00
2019-06-19T09:12:26.858Z,1.00
2019-06-19T09:13:34.788Z,1.00
2019-06-19T09:14:40.120Z,1.00
2019-06-19T09:15:44.727Z,1.00
2019-06-19T09:16:49.932Z,1.00
2019-06-19T09:17:54.620Z,1.00
2019-06-19T09:18:59.912Z,1.00
2019-06-19T09:20:05.868Z,1.00
2019-06-19T09:21:12.069Z,1.00
2019-06-19T09:22:16.736Z,1.00
2019-06-19T09:23:23.172Z,1.00
2019-06-19T09:24:28.151Z,1.00
2019-06-19T09:25:33.405Z,1.00
2019-06-19T09:26:38.084Z,1.00
2019-06-19T09:27:43.323Z,1.00
2019-06-19T09:28:48.905Z,1.00
2019-06-19T09:29:54.208Z,1.00
2019-06-19T09:31:00.375Z,1.00
2019-06-19T09:32:05.656Z,1.00
2019-06-19T09:33:10.312Z,1.00
2019-06-19T09:34:15.590Z,1.00
2019-06-19T09:35:20.223Z,1.00
2019-06-19T09:36:25.563Z,1.00
2019-06-19T09:37:30.164Z,1.00
2019-06-19T09:38:35.389Z,1.00
2019-06-19T09:39:40.107Z,1.00
2019-06-19T09:40:45.361Z,1.00
2019-06-19T09:41:50.034Z,1.00
2019-06-19T09:42:55.378Z,1.00
2019-06-19T09:44:01.017Z,1.00
2019-06-19T09:45:07.035Z,1.00
2019-06-19T09:46:11.775Z,1.00
2019-06-19T09:47:16.950Z,1.00
2019-06-19T09:48:21.965Z,1.00
2019-06-19T09:49:27.158Z,1.00
2019-06-19T09:50:31.861Z,1.00
2019-06-19T09:51:37.141Z,1.00
2019-06-19T09:52:41.763Z,1.00
2019-06-19T09:53:47.029Z,1.00
2019-06-19T09:54:51.727Z,1.00
2019-06-19T09:55:56.965Z,1.00
2019-06-19T09:57:01.754Z,1.00
2019-06-19T09:58:06.963Z,1.00
2019-06-19T09:59:11.719Z,1.00
2019-06-19T10:00:17.378Z,1.00
2019-06-19T10:01:22.134Z,1.00
2019-06-19T10:02:27.378Z,1.00
2019-06-19T10:03:34.424Z,1.00
2019-06-19T10:04:38.958Z,1.00
2019-06-19T10:05:43.768Z,1.00
2019-06-19T10:06:49.090Z,1.00
2019-06-19T10:07:53.803Z,1.00
2019-06-19T10:08:59.131Z,1.00
2019-06-19T10:10:04.336Z,1.00
2019-06-19T10:11:09.686Z,1.00
2019-06-19T10:12:17.761Z,1.00
2019-06-19T10:13:21.460Z,1.00
2019-06-19T10:14:26.103Z,1.00
2019-06-19T10:15:31.351Z,1.00
2019-06-19T10:16:35.965Z,1.00
2019-06-19T10:17:41.231Z,1.00
2019-06-19T10:18:47.702Z,1.00
2019-06-19T10:19:52.948Z,1.00
2019-06-19T10:20:57.639Z,1.00
2019-06-19T10:22:02.880Z,1.00
2019-06-19T10:23:07.705Z,1.00
2019-06-19T10:24:12.951Z,1.00
2019-06-19T10:25:17.974Z,1.00
2019-06-19T10:26:23.199Z,1.00
2019-06-19T10:27:27.823Z,1.00
2019-06-19T10:28:33.022Z,1.00
2019-06-19T10:29:37.607Z,1.00
2019-06-19T10:30:43.021Z,1.00
2019-06-19T10:31:47.653Z,1.00
2019-06-19T10:32:52.938Z,1.00
2019-06-19T10:33:57.680Z,1.00
2019-06-19T10:35:02.935Z,1.00
2019-06-19T10:36:07.706Z,1.00
2019-06-19T10:37:12.932Z,1.00
2019-06-19T10:38:17.654Z,1.00
2019-06-19T10:39:22.875Z,1.00
2019-06-19T10:40:27.505Z,1.00
2019-06-19T10:41:32.710Z,1.00
2019-06-19T10:42:38.361Z,1.00
2019-06-19T10:43:43.661Z,1.00
2019-06-19T10:44:48.408Z,1.00
2019-06-19T10:45:53.599Z,1.00
2019-06-19T10:46:58.218Z,1.00
2019-06-19T10:48:03.558Z,1.00
2019-06-19T10:49:08.194Z,1.00
2019-06-19T10:50:13.892Z,1.00
2019-06-19T10:51:18.590Z,1.00
2019-06-19T10:52:23.816Z,1.00
2019-06-19T10:53:28.425Z,1.00
2019-06-19T10:54:33.614Z,1.00
2019-06-19T10:55:38.407Z,1.00
2019-06-19T10:56:43.675Z,1.00
2019-06-19T10:57:48.417Z,1.00
2019-06-19T10:58:53.663Z,1.00
2019-06-19T10:59:58.418Z,1.00
2019-06-19T11:01:03.866Z,1.00
2019-06-19T11:02:08.881Z,1.00
2019-06-19T11:03:14.353Z,1.00
2019-06-19T11:04:19.444Z,1.00
2019-06-19T11:05:38.867Z,1.00
2019-06-19T11:06:31.297Z,1.00
2019-06-19T11:07:36.735Z,1.00
2019-06-19T11:08:41.354Z,1.00
2019-06-19T11:09:46.584Z,1.00
2019-06-19T11:10:51.241Z,1.00
2019-06-19T11:11:56.533Z,1.00
2019-06-19T11:13:01.197Z,1.00
2019-06-19T11:14:06.840Z,1.00
2019-06-19T11:15:12.525Z,1.00
2019-06-19T11:16:17.767Z,1.00
2019-06-19T11:17:22.418Z,1.00
2019-06-19T11:18:27.880Z,1.00
2019-06-19T11:19:33.066Z,1.00
2019-06-19T11:20:38.310Z,1.00
2019-06-19T11:21:42.930Z,1.00
2019-06-19T11:22:48.460Z,1.00
2019-06-19T11:23:53.105Z,1.00
2019-06-19T11:24:59.365Z,1.00
2019-06-19T11:26:04.169Z,1.00
2019-06-19T11:27:09.414Z,1.00
2019-06-19T11:28:15.064Z,1.00
2019-06-19T11:29:20.303Z,1.00
2019-06-19T11:30:25.113Z,1.00
2019-06-19T11:31:30.342Z,1.00
2019-06-19T11:32:35.029Z,1.00
2019-06-19T11:33:41.933Z,1.00
2019-06-19T11:34:46.743Z,1.00
2019-06-19T11:35:56.986Z,1.00
2019-06-19T11:36:58.264Z,1.00
2019-06-19T11:38:03.470Z,1.00
2019-06-19T11:39:09.104Z,1.00
2019-06-19T11:40:16.277Z,1.00
2019-06-19T11:41:22.090Z,1.00
2019-06-19T11:42:27.437Z,1.00
2019-06-19T11:43:32.051Z,1.00
2019-06-19T11:44:37.551Z,1.00
2019-06-19T11:45:42.654Z,1.00
2019-06-19T11:46:48.172Z,1.00
2019-06-19T11:47:53.097Z,1.00
2019-06-19T11:48:59.308Z,1.00
2019-06-19T11:50:04.826Z,1.00
2019-06-19T11:51:10.328Z,1.00
2019-06-19T11:52:15.068Z,1.00
2019-06-19T11:53:20.593Z,1.00
2019-06-19T11:54:25.401Z,1.00
2019-06-19T11:55:30.958Z,1.00
2019-06-19T11:56:35.664Z,1.00
2019-06-19T11:57:43.338Z,1.00
2019-06-19T11:58:47.995Z,1.00
2019-06-19T11:59:53.876Z,1.00
2019-06-19T12:00:58.686Z,1.00
2019-06-19T12:02:04.976Z,1.00
2019-06-19T12:03:25.792Z,1.00
2019-06-19T12:04:17.359Z,1.00
2019-06-19T12:05:22.148Z,1.00
2019-06-19T12:06:27.347Z,1.00
2019-06-19T12:07:32.040Z,1.00
2019-06-19T12:08:37.232Z,1.00
2019-06-19T12:09:42.101Z,1.00
2019-06-19T12:10:47.446Z,1.00
2019-06-19T12:11:52.072Z,1.00
2019-06-19T12:12:57.295Z,1.00
2019-06-19T12:14:14.980Z,1.00
2019-06-19T12:15:09.346Z,1.00
2019-06-19T12:16:14.028Z,1.00
2019-06-19T12:17:19.366Z,1.00
2019-06-19T12:18:23.986Z,1.00
2019-06-19T12:19:29.295Z,1.00
2019-06-19T12:20:34.073Z,1.00
2019-06-19T12:21:40.309Z,1.00
2019-06-19T12:22:44.991Z,1.00
2019-06-19T12:23:50.249Z,1.00
2019-06-19T12:24:54.979Z,1.00
2019-06-19T12:26:00.259Z,1.00
2019-06-19T12:27:05.089Z,1.00
2019-06-19T12:28:10.510Z,1.00
2019-06-19T12:29:15.287Z,1.00
2019-06-19T12:30:20.676Z,1.00
2019-06-19T12:31:25.360Z,1.00
2019-06-19T12:32:30.573Z,1.00
2019-06-19T12:33:35.300Z,1.00
2019-06-19T12:34:40.599Z,1.00
2019-06-19T12:35:48.513Z,1.00
2019-06-19T12:36:53.799Z,1.00
2019-06-19T12:37:58.451Z,1.00
2019-06-19T12:39:03.937Z,1.00
2019-06-19T12:40:10.462Z,1.00
2019-06-19T12:41:15.792Z,1.00
2019-06-19T12:42:20.500Z,1.00
2019-06-19T12:43:25.751Z,1.00
2019-06-19T12:44:30.465Z,1.00
2019-06-19T12:45:35.692Z,1.00
2019-06-19T12:46:40.327Z,1.00
2019-06-19T12:47:45.669Z,1.00
2019-06-19T12:48:51.651Z,1.00
2019-06-19T12:49:57.101Z,1.00
2019-06-19T12:51:01.826Z,1.00
2019-06-19T12:52:08.243Z,1.00
2019-06-19T12:53:12.947Z,1.00
2019-06-19T12:54:18.241Z,1.00
2019-06-19T12:55:26.648Z,1.00
2019-06-19T12:56:30.660Z,1.00
2019-06-19T12:57:35.418Z,1.00
2019-06-19T12:58:40.665Z,1.00
2019-06-19T12:59:45.307Z,1.00
2019-06-19T13:00:50.613Z,1.00
2019-06-19T13:01:55.291Z,1.00
2019-06-19T13:03:00.516Z,1.00
2019-06-19T13:04:05.375Z,1.00
2019-06-19T13:05:11.200Z,1.00
2019-06-19T13:06:15.960Z,1.00
2019-06-19T13:07:21.361Z,1.00
2019-06-19T13:08:26.017Z,1.00
2019-06-19T13:09:31.270Z,1.00
2019-06-19T13:10:36.015Z,1.00
2019-06-19T13:11:41.471Z,1.00
2019-06-19T13:12:47.104Z,1.00
2019-06-19T13:13:52.459Z,1.00
2019-06-19T13:14:57.120Z,1.00
2019-06-19T13:16:02.423Z,1.00
2019-06-19T13:17:07.156Z,1.00
2019-06-19T13:18:12.400Z,1.00
2019-06-19T13:19:17.070Z,1.00
2019-06-19T13:20:23.679Z,1.00
2019-06-19T13:21:28.340Z,1.00
2019-06-19T13:22:33.527Z,1.00
2019-06-19T13:23:38.162Z,1.00
2019-06-19T13:24:43.369Z,1.00
2019-06-19T13:25:47.997Z,1.00
2019-06-19T13:26:53.226Z,1.00
2019-06-19T13:27:57.913Z,1.00
2019-06-19T13:29:03.331Z,1.00
2019-06-19T13:30:09.551Z,1.00
2019-06-19T13:31:14.834Z,1.00
2019-06-19T13:32:19.446Z,1.00
2019-06-19T13:33:24.729Z,1.00
2019-06-19T13:34:29.336Z,1.00
2019-06-19T13:35:34.536Z,1.00
2019-06-19T13:36:39.191Z,1.00
2019-06-19T13:37:44.487Z,1.00
2019-06-19T13:38:49.119Z,1.00
2019-06-19T13:39:54.392Z,1.00
2019-06-19T13:40:59.102Z,1.00
2019-06-19T13:42:04.269Z,1.00
2019-06-19T13:43:08.870Z,1.00
2019-06-19T13:44:14.053Z,1.00
2019-06-19T13:45:19.204Z,1.00
2019-06-19T13:46:24.418Z,1.00
2019-06-19T13:47:29.029Z,1.00
2019-06-19T13:48:34.355Z,1.00
2019-06-19T13:49:38.983Z,1.00
2019-06-19T13:50:44.210Z,1.00
2019-06-19T13:51:48.950Z,1.00
2019-06-19T13:52:54.116Z,1.00
2019-06-19T13:53:58.860Z,1.00
2019-06-19T13:55:04.271Z,1.00
2019-06-19T13:56:08.967Z,1.00
2019-06-19T13:57:15.026Z,1.00
2019-06-19T13:58:19.722Z,1.00
2019-06-19T13:59:25.176Z,1.00
2019-06-19T14:00:29.875Z,1.00
2019-06-19T14:01:35.151Z,1.00
2019-06-19T14:02:39.801Z,1.00
2019-06-19T14:03:47.945Z,1.00
2019-06-19T14:04:51.307Z,1.00
2019-06-19T14:05:56.513Z,1.00
2019-06-19T14:07:01.195Z,1.00
2019-06-19T14:08:06.494Z,1.00
2019-06-19T14:09:11.267Z,1.00
2019-06-19T14:10:17.212Z,1.00
2019-06-19T14:11:22.145Z,1.00
2019-06-19T14:12:27.384Z,1.00
2019-06-19T14:13:32.003Z,1.00
2019-06-19T14:14:37.222Z,1.00
2019-06-19T14:15:41.822Z,1.00
2019-06-19T14:16:48.072Z,1.00
2019-06-19T14:17:52.865Z,1.00
2019-06-19T14:18:58.303Z,1.00
2019-06-19T14:20:02.901Z,1.00
2019-06-19T14:21:08.219Z,1.00
2019-06-19T14:22:12.841Z,1.00
2019-06-19T14:23:18.032Z,1.00
2019-06-19T14:24:22.663Z,1.00
2019-06-19T14:25:27.858Z,1.00
2019-06-19T14:26:32.574Z,1.00
2019-06-19T14:27:38.152Z,1.00
2019-06-19T14:28:42.822Z,1.00